sensor_id;sensor_type;location;lat;lon;timestamp;temperature;humidity
25046;DHT22;13044;49.304;12.840;2023-06-24T00:00:10;16.80;99.90
25046;DHT22;13044;49.304;12.840;2023-06-24T00:02:38;16.80;99.90
25046;DHT22;13044;49.304;12.840;2023-06-24T00:05:08;16.80;99.90
25046;DHT22;13044;49.304;12.840;2023-06-24T00:07:35;16.80;99.90
25046;DHT22;13044;49.304;12.840;2023-06-24T00:10:13;16.80;99.90
25046;DHT22;13044;49.304;12.840;2023-06-24T00:12:44;16.80;99.90
25046;DHT22;13044;49.304;12.840;2023-06-24T00:15:11;16.80;99.90
25046;DHT22;13044;49.304;12.840;2023-06-24T00:17:39;16.80;99.90
25046;DHT22;13044;49.304;12.840;2023-06-24T00:20:07;16.80;99.90
25046;DHT22;13044;49.304;12.840;2023-06-24T00:22:38;16.80;99.90
25046;DHT22;13044;49.304;12.840;2023-06-24T00:25:15;16.80;99.90
25046;DHT22;13044;49.304;12.840;2023-06-24T00:27:42;16.70;99.90
25046;DHT22;13044;49.304;12.840;2023-06-24T00:30:10;16.70;99.90
25046;DHT22;13044;49.304;12.840;2023-06-24T00:32:37;16.70;99.90
25046;DHT22;13044;49.304;12.840;2023-06-24T00:35:04;16.70;99.90
25046;DHT22;13044;49.304;12.840;2023-06-24T00:37:32;16.70;99.90
25046;DHT22;13044;49.304;12.840;2023-06-24T00:39:58;16.70;99.90
25046;DHT22;13044;49.304;12.840;2023-06-24T00:42:26;16.60;99.90
25046;DHT22;13044;49.304;12.840;2023-06-24T00:44:53;16.60;99.90
25046;DHT22;13044;49.304;12.840;2023-06-24T00:47:20;16.60;99.90
25046;DHT22;13044;49.304;12.840;2023-06-24T00:49:48;16.60;99.90
25046;DHT22;13044;49.304;12.840;2023-06-24T00:52:15;16.50;99.90
25046;DHT22;13044;49.304;12.840;2023-06-24T00:54:43;16.50;99.90
25046;DHT22;13044;49.304;12.840;2023-06-24T00:57:11;16.40;99.90
25046;DHT22;13044;49.304;12.840;2023-06-24T00:59:40;16.40;99.90
25046;DHT22;13044;49.304;12.840;2023-06-24T01:02:09;16.40;99.90
25046;DHT22;13044;49.304;12.840;2023-06-24T01:04:37;16.30;99.90
25046;DHT22;13044;49.304;12.840;2023-06-24T01:07:05;16.30;99.90
25046;DHT22;13044;49.304;12.840;2023-06-24T01:09:33;16.40;99.90
25046;DHT22;13044;49.304;12.840;2023-06-24T01:12:00;16.40;99.90
25046;DHT22;13044;49.304;12.840;2023-06-24T01:14:27;16.40;99.90
25046;DHT22;13044;49.304;12.840;2023-06-24T01:17:12;16.50;99.90
25046;DHT22;13044;49.304;12.840;2023-06-24T01:31:34;16.40;99.90
25046;DHT22;13044;49.304;12.840;2023-06-24T01:37:11;16.40;99.90
25046;DHT22;13044;49.304;12.840;2023-06-24T01:39:57;16.40;99.90
25046;DHT22;13044;49.304;12.840;2023-06-24T01:42:38;16.40;99.90
25046;DHT22;13044;49.304;12.840;2023-06-24T01:45:07;16.50;99.90
25046;DHT22;13044;49.304;12.840;2023-06-24T01:47:37;16.50;99.90
25046;DHT22;13044;49.304;12.840;2023-06-24T01:50:10;16.50;99.90
25046;DHT22;13044;49.304;12.840;2023-06-24T01:52:41;16.50;99.90
25046;DHT22;13044;49.304;12.840;2023-06-24T01:55:13;16.50;99.90
25046;DHT22;13044;49.304;12.840;2023-06-24T01:57:44;16.50;99.90
25046;DHT22;13044;49.304;12.840;2023-06-24T02:00:12;16.50;99.90
25046;DHT22;13044;49.304;12.840;2023-06-24T02:02:40;16.50;99.90
25046;DHT22;13044;49.304;12.840;2023-06-24T02:05:09;16.50;99.90
25046;DHT22;13044;49.304;12.840;2023-06-24T02:07:37;16.50;99.90
25046;DHT22;13044;49.304;12.840;2023-06-24T02:10:06;16.40;99.90
25046;DHT22;13044;49.304;12.840;2023-06-24T02:12:35;16.40;99.90
25046;DHT22;13044;49.304;12.840;2023-06-24T02:15:03;16.40;99.90
25046;DHT22;13044;49.304;12.840;2023-06-24T02:17:33;16.40;99.90
25046;DHT22;13044;49.304;12.840;2023-06-24T02:20:01;16.50;99.90
25046;DHT22;13044;49.304;12.840;2023-06-24T02:22:31;16.50;99.90
25046;DHT22;13044;49.304;12.840;2023-06-24T02:24:59;16.50;99.90
25046;DHT22;13044;49.304;12.840;2023-06-24T02:27:26;16.40;99.90
25046;DHT22;13044;49.304;12.840;2023-06-24T02:29:54;16.40;99.90
25046;DHT22;13044;49.304;12.840;2023-06-24T02:32:23;16.40;99.90
25046;DHT22;13044;49.304;12.840;2023-06-24T02:34:49;16.50;99.90
25046;DHT22;13044;49.304;12.840;2023-06-24T02:37:16;16.50;99.90
25046;DHT22;13044;49.304;12.840;2023-06-24T02:39:43;16.50;99.90
25046;DHT22;13044;49.304;12.840;2023-06-24T02:42:11;16.50;99.90
25046;DHT22;13044;49.304;12.840;2023-06-24T02:44:39;16.50;99.90
25046;DHT22;13044;49.304;12.840;2023-06-24T02:47:08;16.50;99.90
25046;DHT22;13044;49.304;12.840;2023-06-24T02:49:37;16.50;99.90
25046;DHT22;13044;49.304;12.840;2023-06-24T02:52:06;16.50;99.90
25046;DHT22;13044;49.304;12.840;2023-06-24T02:54:33;16.50;99.90
25046;DHT22;13044;49.304;12.840;2023-06-24T02:57:01;16.50;99.90
25046;DHT22;13044;49.304;12.840;2023-06-24T02:59:28;16.50;99.90
25046;DHT22;13044;49.304;12.840;2023-06-24T03:01:56;16.50;99.90
25046;DHT22;13044;49.304;12.840;2023-06-24T03:04:23;16.50;99.90
25046;DHT22;13044;49.304;12.840;2023-06-24T03:06:50;16.50;99.90
25046;DHT22;13044;49.304;12.840;2023-06-24T03:09:18;16.50;99.90
25046;DHT22;13044;49.304;12.840;2023-06-24T03:11:45;16.50;99.90
25046;DHT22;13044;49.304;12.840;2023-06-24T03:14:12;16.50;99.90
25046;DHT22;13044;49.304;12.840;2023-06-24T03:16:40;16.50;99.90
25046;DHT22;13044;49.304;12.840;2023-06-24T03:19:08;16.50;99.90
25046;DHT22;13044;49.304;12.840;2023-06-24T03:21:35;16.50;99.90
25046;DHT22;13044;49.304;12.840;2023-06-24T03:24:02;16.50;99.90
25046;DHT22;13044;49.304;12.840;2023-06-24T03:26:34;16.50;99.90
25046;DHT22;13044;49.304;12.840;2023-06-24T03:29:02;16.50;99.90
25046;DHT22;13044;49.304;12.840;2023-06-24T03:31:30;16.50;99.90
25046;DHT22;13044;49.304;12.840;2023-06-24T03:33:56;16.50;99.90
25046;DHT22;13044;49.304;12.840;2023-06-24T03:36:23;16.50;99.90
25046;DHT22;13044;49.304;12.840;2023-06-24T03:38:51;16.50;99.90
25046;DHT22;13044;49.304;12.840;2023-06-24T03:41:18;16.50;99.90
25046;DHT22;13044;49.304;12.840;2023-06-24T03:43:46;16.50;99.90
25046;DHT22;13044;49.304;12.840;2023-06-24T03:46:13;16.50;99.90
25046;DHT22;13044;49.304;12.840;2023-06-24T03:48:40;16.50;99.90
25046;DHT22;13044;49.304;12.840;2023-06-24T03:51:07;16.50;99.90
25046;DHT22;13044;49.304;12.840;2023-06-24T03:53:33;16.50;99.90
25046;DHT22;13044;49.304;12.840;2023-06-24T03:56:00;16.50;99.90
25046;DHT22;13044;49.304;12.840;2023-06-24T03:58:27;16.50;99.90
25046;DHT22;13044;49.304;12.840;2023-06-24T04:00:54;16.50;99.90
25046;DHT22;13044;49.304;12.840;2023-06-24T04:03:24;16.50;99.90
25046;DHT22;13044;49.304;12.840;2023-06-24T04:05:55;16.40;99.90
25046;DHT22;13044;49.304;12.840;2023-06-24T04:08:23;16.50;99.90
25046;DHT22;13044;49.304;12.840;2023-06-24T04:10:51;16.50;99.90
25046;DHT22;13044;49.304;12.840;2023-06-24T04:13:18;16.40;99.90
25046;DHT22;13044;49.304;12.840;2023-06-24T04:15:45;16.40;99.90
25046;DHT22;13044;49.304;12.840;2023-06-24T04:18:12;16.40;99.90
25046;DHT22;13044;49.304;12.840;2023-06-24T04:20:39;16.40;99.90
25046;DHT22;13044;49.304;12.840;2023-06-24T04:23:06;16.40;99.90
25046;DHT22;13044;49.304;12.840;2023-06-24T04:25:36;16.40;99.90
25046;DHT22;13044;49.304;12.840;2023-06-24T04:28:03;16.40;99.90
25046;DHT22;13044;49.304;12.840;2023-06-24T04:30:34;16.40;99.90
25046;DHT22;13044;49.304;12.840;2023-06-24T04:33:02;16.40;99.90
25046;DHT22;13044;49.304;12.840;2023-06-24T04:35:29;16.40;99.90
25046;DHT22;13044;49.304;12.840;2023-06-24T04:37:57;16.40;99.90
25046;DHT22;13044;49.304;12.840;2023-06-24T04:40:24;16.40;99.90
25046;DHT22;13044;49.304;12.840;2023-06-24T04:42:51;16.40;99.90
25046;DHT22;13044;49.304;12.840;2023-06-24T04:45:17;16.40;99.90
25046;DHT22;13044;49.304;12.840;2023-06-24T04:47:44;16.50;99.90
25046;DHT22;13044;49.304;12.840;2023-06-24T04:50:11;16.50;99.90
25046;DHT22;13044;49.304;12.840;2023-06-24T04:52:39;16.50;99.90
25046;DHT22;13044;49.304;12.840;2023-06-24T04:55:06;16.50;99.90
25046;DHT22;13044;49.304;12.840;2023-06-24T04:57:33;16.50;99.90
25046;DHT22;13044;49.304;12.840;2023-06-24T05:00:03;16.50;99.90
25046;DHT22;13044;49.304;12.840;2023-06-24T05:02:31;16.50;99.90
25046;DHT22;13044;49.304;12.840;2023-06-24T05:04:58;16.50;99.90
25046;DHT22;13044;49.304;12.840;2023-06-24T05:07:25;16.60;99.90
25046;DHT22;13044;49.304;12.840;2023-06-24T05:09:52;16.60;99.90
25046;DHT22;13044;49.304;12.840;2023-06-24T05:12:19;16.60;99.90
25046;DHT22;13044;49.304;12.840;2023-06-24T05:14:50;16.60;99.90
25046;DHT22;13044;49.304;12.840;2023-06-24T05:17:19;16.60;99.90
25046;DHT22;13044;49.304;12.840;2023-06-24T05:19:47;16.60;99.90
25046;DHT22;13044;49.304;12.840;2023-06-24T05:22:14;16.60;99.90
25046;DHT22;13044;49.304;12.840;2023-06-24T05:24:41;16.60;99.90
25046;DHT22;13044;49.304;12.840;2023-06-24T05:27:08;16.60;99.90
25046;DHT22;13044;49.304;12.840;2023-06-24T05:29:36;16.60;99.90
25046;DHT22;13044;49.304;12.840;2023-06-24T05:32:03;16.60;99.90
25046;DHT22;13044;49.304;12.840;2023-06-24T05:34:31;16.60;99.90
25046;DHT22;13044;49.304;12.840;2023-06-24T05:36:58;16.60;99.90
25046;DHT22;13044;49.304;12.840;2023-06-24T05:39:25;16.70;99.90
25046;DHT22;13044;49.304;12.840;2023-06-24T05:41:52;16.70;99.90
25046;DHT22;13044;49.304;12.840;2023-06-24T05:44:19;16.70;99.90
25046;DHT22;13044;49.304;12.840;2023-06-24T05:46:46;16.70;99.90
25046;DHT22;13044;49.304;12.840;2023-06-24T05:49:13;16.70;99.90
25046;DHT22;13044;49.304;12.840;2023-06-24T05:51:40;16.70;99.90
25046;DHT22;13044;49.304;12.840;2023-06-24T05:54:07;16.80;99.90
25046;DHT22;13044;49.304;12.840;2023-06-24T05:56:34;16.80;99.90
25046;DHT22;13044;49.304;12.840;2023-06-24T05:59:05;16.80;99.90
25046;DHT22;13044;49.304;12.840;2023-06-24T06:01:32;16.90;99.90
25046;DHT22;13044;49.304;12.840;2023-06-24T06:03:59;16.90;99.90
25046;DHT22;13044;49.304;12.840;2023-06-24T06:06:26;16.90;99.90
25046;DHT22;13044;49.304;12.840;2023-06-24T06:08:53;16.90;99.90
25046;DHT22;13044;49.304;12.840;2023-06-24T06:11:20;16.90;99.90
25046;DHT22;13044;49.304;12.840;2023-06-24T06:13:47;17.00;99.90
25046;DHT22;13044;49.304;12.840;2023-06-24T06:16:14;17.00;99.90
25046;DHT22;13044;49.304;12.840;2023-06-24T06:18:41;17.00;99.90
25046;DHT22;13044;49.304;12.840;2023-06-24T06:21:07;17.10;99.90
25046;DHT22;13044;49.304;12.840;2023-06-24T06:23:34;17.10;99.90
25046;DHT22;13044;49.304;12.840;2023-06-24T06:26:01;17.20;99.90
25046;DHT22;13044;49.304;12.840;2023-06-24T06:28:28;17.20;99.90
25046;DHT22;13044;49.304;12.840;2023-06-24T06:30:55;17.20;99.90
25046;DHT22;13044;49.304;12.840;2023-06-24T06:33:23;17.30;99.90
25046;DHT22;13044;49.304;12.840;2023-06-24T06:35:50;17.30;99.90
25046;DHT22;13044;49.304;12.840;2023-06-24T06:38:17;17.30;99.90
25046;DHT22;13044;49.304;12.840;2023-06-24T06:40:44;17.40;99.90
25046;DHT22;13044;49.304;12.840;2023-06-24T06:43:11;17.40;99.90
25046;DHT22;13044;49.304;12.840;2023-06-24T06:45:37;17.50;99.90
25046;DHT22;13044;49.304;12.840;2023-06-24T06:48:05;17.50;99.90
25046;DHT22;13044;49.304;12.840;2023-06-24T06:50:34;17.50;99.90
25046;DHT22;13044;49.304;12.840;2023-06-24T06:53:01;17.60;99.90
25046;DHT22;13044;49.304;12.840;2023-06-24T06:55:29;17.60;99.90
25046;DHT22;13044;49.304;12.840;2023-06-24T06:57:56;17.60;99.90
25046;DHT22;13044;49.304;12.840;2023-06-24T07:00:23;17.70;99.90
25046;DHT22;13044;49.304;12.840;2023-06-24T07:02:50;17.70;99.90
25046;DHT22;13044;49.304;12.840;2023-06-24T07:05:17;17.80;99.90
25046;DHT22;13044;49.304;12.840;2023-06-24T07:07:43;17.80;99.90
25046;DHT22;13044;49.304;12.840;2023-06-24T07:10:12;17.80;99.90
25046;DHT22;13044;49.304;12.840;2023-06-24T07:12:39;17.90;99.90
25046;DHT22;13044;49.304;12.840;2023-06-24T07:15:06;18.00;99.90
25046;DHT22;13044;49.304;12.840;2023-06-24T07:17:37;18.00;99.90
25046;DHT22;13044;49.304;12.840;2023-06-24T07:20:04;18.00;99.90
25046;DHT22;13044;49.304;12.840;2023-06-24T07:22:31;18.10;99.90
25046;DHT22;13044;49.304;12.840;2023-06-24T07:24:58;18.20;99.90
25046;DHT22;13044;49.304;12.840;2023-06-24T07:27:27;18.20;99.90
25046;DHT22;13044;49.304;12.840;2023-06-24T07:29:53;18.30;99.90
25046;DHT22;13044;49.304;12.840;2023-06-24T07:32:20;18.40;99.90
25046;DHT22;13044;49.304;12.840;2023-06-24T07:34:47;18.60;99.90
25046;DHT22;13044;49.304;12.840;2023-06-24T07:37:14;18.70;99.90
25046;DHT22;13044;49.304;12.840;2023-06-24T07:39:51;18.90;99.90
25046;DHT22;13044;49.304;12.840;2023-06-24T07:42:18;19.10;99.90
25046;DHT22;13044;49.304;12.840;2023-06-24T07:44:46;19.20;99.90
25046;DHT22;13044;49.304;12.840;2023-06-24T07:47:17;19.40;99.90
25046;DHT22;13044;49.304;12.840;2023-06-24T07:49:45;19.50;99.90
25046;DHT22;13044;49.304;12.840;2023-06-24T07:52:22;19.70;99.90
25046;DHT22;13044;49.304;12.840;2023-06-24T07:54:49;19.90;99.90
25046;DHT22;13044;49.304;12.840;2023-06-24T07:57:16;20.20;99.90
25046;DHT22;13044;49.304;12.840;2023-06-24T07:59:43;20.40;99.90
25046;DHT22;13044;49.304;12.840;2023-06-24T08:02:10;20.50;99.90
25046;DHT22;13044;49.304;12.840;2023-06-24T08:04:37;20.50;99.90
25046;DHT22;13044;49.304;12.840;2023-06-24T08:07:04;20.70;99.90
25046;DHT22;13044;49.304;12.840;2023-06-24T08:09:31;20.80;99.90
25046;DHT22;13044;49.304;12.840;2023-06-24T08:11:58;20.90;99.90
25046;DHT22;13044;49.304;12.840;2023-06-24T08:14:25;21.00;99.90
25046;DHT22;13044;49.304;12.840;2023-06-24T08:16:52;21.10;99.90
25046;DHT22;13044;49.304;12.840;2023-06-24T08:19:19;21.10;99.90
25046;DHT22;13044;49.304;12.840;2023-06-24T08:21:46;21.10;99.90
25046;DHT22;13044;49.304;12.840;2023-06-24T08:24:13;21.20;99.90
25046;DHT22;13044;49.304;12.840;2023-06-24T08:26:40;21.20;99.90
25046;DHT22;13044;49.304;12.840;2023-06-24T08:29:07;21.30;99.90
25046;DHT22;13044;49.304;12.840;2023-06-24T08:31:34;21.40;99.90
25046;DHT22;13044;49.304;12.840;2023-06-24T08:34:01;21.50;99.90
25046;DHT22;13044;49.304;12.840;2023-06-24T08:36:29;21.70;99.90
25046;DHT22;13044;49.304;12.840;2023-06-24T08:38:56;21.80;99.90
25046;DHT22;13044;49.304;12.840;2023-06-24T08:41:24;21.90;99.90
25046;DHT22;13044;49.304;12.840;2023-06-24T08:43:54;22.00;99.90
25046;DHT22;13044;49.304;12.840;2023-06-24T08:46:23;22.10;99.90
25046;DHT22;13044;49.304;12.840;2023-06-24T08:48:59;22.30;99.90
25046;DHT22;13044;49.304;12.840;2023-06-24T08:51:31;22.50;99.90
25046;DHT22;13044;49.304;12.840;2023-06-24T08:54:02;22.50;99.90
25046;DHT22;13044;49.304;12.840;2023-06-24T08:56:29;22.60;99.90
25046;DHT22;13044;49.304;12.840;2023-06-24T08:58:56;22.80;99.90
25046;DHT22;13044;49.304;12.840;2023-06-24T09:01:23;22.90;99.90
25046;DHT22;13044;49.304;12.840;2023-06-24T09:03:51;23.00;99.90
25046;DHT22;13044;49.304;12.840;2023-06-24T09:06:18;23.00;99.90
25046;DHT22;13044;49.304;12.840;2023-06-24T09:08:55;23.00;99.90
25046;DHT22;13044;49.304;12.840;2023-06-24T09:11:24;23.00;99.90
25046;DHT22;13044;49.304;12.840;2023-06-24T09:14:00;23.00;99.90
25046;DHT22;13044;49.304;12.840;2023-06-24T09:16:27;23.10;99.90
25046;DHT22;13044;49.304;12.840;2023-06-24T09:18:55;23.20;99.90
25046;DHT22;13044;49.304;12.840;2023-06-24T09:21:26;23.40;99.90
25046;DHT22;13044;49.304;12.840;2023-06-24T09:23:58;23.40;99.90
25046;DHT22;13044;49.304;12.840;2023-06-24T09:26:26;23.50;99.90
25046;DHT22;13044;49.304;12.840;2023-06-24T09:28:54;23.60;99.90
25046;DHT22;13044;49.304;12.840;2023-06-24T09:31:21;23.70;99.90
25046;DHT22;13044;49.304;12.840;2023-06-24T09:33:50;23.80;99.90
25046;DHT22;13044;49.304;12.840;2023-06-24T09:36:17;23.80;99.90
25046;DHT22;13044;49.304;12.840;2023-06-24T09:38:44;23.70;99.90
25046;DHT22;13044;49.304;12.840;2023-06-24T09:41:13;23.70;99.90
25046;DHT22;13044;49.304;12.840;2023-06-24T09:43:42;23.70;99.90
25046;DHT22;13044;49.304;12.840;2023-06-24T09:46:14;23.80;99.90
25046;DHT22;13044;49.304;12.840;2023-06-24T09:48:42;23.70;99.90
25046;DHT22;13044;49.304;12.840;2023-06-24T09:51:11;23.80;99.90
25046;DHT22;13044;49.304;12.840;2023-06-24T09:53:39;23.90;99.90
25046;DHT22;13044;49.304;12.840;2023-06-24T09:56:08;24.00;99.90
25046;DHT22;13044;49.304;12.840;2023-06-24T09:58:37;24.10;99.90
25046;DHT22;13044;49.304;12.840;2023-06-24T10:01:06;24.00;99.90
25046;DHT22;13044;49.304;12.840;2023-06-24T10:03:35;24.00;99.90
25046;DHT22;13044;49.304;12.840;2023-06-24T10:06:04;24.00;99.90
25046;DHT22;13044;49.304;12.840;2023-06-24T10:08:32;24.00;99.90
25046;DHT22;13044;49.304;12.840;2023-06-24T10:10:59;23.90;99.90
25046;DHT22;13044;49.304;12.840;2023-06-24T10:13:27;23.80;99.90
25046;DHT22;13044;49.304;12.840;2023-06-24T10:15:56;23.80;99.90
25046;DHT22;13044;49.304;12.840;2023-06-24T10:18:33;23.80;99.90
25046;DHT22;13044;49.304;12.840;2023-06-24T10:21:06;23.80;99.90
25046;DHT22;13044;49.304;12.840;2023-06-24T10:24:00;23.80;99.90
25046;DHT22;13044;49.304;12.840;2023-06-24T10:26:30;23.90;99.90
25046;DHT22;13044;49.304;12.840;2023-06-24T10:34:30;24.20;99.50
25046;DHT22;13044;49.304;12.840;2023-06-24T10:37:20;24.20;99.90
25046;DHT22;13044;49.304;12.840;2023-06-24T10:44:55;24.60;99.20
25046;DHT22;13044;49.304;12.840;2023-06-24T10:47:27;24.60;98.70
25046;DHT22;13044;49.304;12.840;2023-06-24T10:49:55;24.70;99.00
25046;DHT22;13044;49.304;12.840;2023-06-24T10:52:23;24.70;97.70
25046;DHT22;13044;49.304;12.840;2023-06-24T10:54:51;24.80;98.20
25046;DHT22;13044;49.304;12.840;2023-06-24T10:57:27;24.90;97.30
25046;DHT22;13044;49.304;12.840;2023-06-24T10:59:56;25.00;97.30
25046;DHT22;13044;49.304;12.840;2023-06-24T11:02:27;25.00;97.00
25046;DHT22;13044;49.304;12.840;2023-06-24T11:05:02;25.00;96.20
25046;DHT22;13044;49.304;12.840;2023-06-24T11:07:34;25.00;96.30
25046;DHT22;13044;49.304;12.840;2023-06-24T11:12:42;25.20;96.10
25046;DHT22;13044;49.304;12.840;2023-06-24T11:15:12;25.30;96.10
25046;DHT22;13044;49.304;12.840;2023-06-24T11:17:40;25.40;95.70
25046;DHT22;13044;49.304;12.840;2023-06-24T11:20:13;25.40;94.40
25046;DHT22;13044;49.304;12.840;2023-06-24T11:22:41;25.30;93.50
25046;DHT22;13044;49.304;12.840;2023-06-24T11:25:15;25.20;92.30
25046;DHT22;13044;49.304;12.840;2023-06-24T11:27:43;25.20;92.80
25046;DHT22;13044;49.304;12.840;2023-06-24T11:30:12;25.30;93.50
25046;DHT22;13044;49.304;12.840;2023-06-24T11:32:43;25.50;94.00
25046;DHT22;13044;49.304;12.840;2023-06-24T11:35:12;25.60;92.20
25046;DHT22;13044;49.304;12.840;2023-06-24T11:37:46;25.60;91.30
25046;DHT22;13044;49.304;12.840;2023-06-24T11:40:17;25.70;92.90
25046;DHT22;13044;49.304;12.840;2023-06-24T11:42:46;25.80;93.10
25046;DHT22;13044;49.304;12.840;2023-06-24T11:45:19;25.90;92.60
25046;DHT22;13044;49.304;12.840;2023-06-24T11:47:46;25.90;92.30
25046;DHT22;13044;49.304;12.840;2023-06-24T11:50:15;25.90;91.30
25046;DHT22;13044;49.304;12.840;2023-06-24T11:52:49;25.90;90.80
25046;DHT22;13044;49.304;12.840;2023-06-24T11:57:52;25.90;91.30
25046;DHT22;13044;49.304;12.840;2023-06-24T12:00:35;26.00;90.80
25046;DHT22;13044;49.304;12.840;2023-06-24T12:03:05;26.10;91.50
25046;DHT22;13044;49.304;12.840;2023-06-24T12:05:38;26.20;90.70
25046;DHT22;13044;49.304;12.840;2023-06-24T12:08:12;26.20;90.50
25046;DHT22;13044;49.304;12.840;2023-06-24T12:10:43;26.20;90.50
25046;DHT22;13044;49.304;12.840;2023-06-24T12:13:11;26.30;89.70
25046;DHT22;13044;49.304;12.840;2023-06-24T12:15:38;26.30;89.80
25046;DHT22;13044;49.304;12.840;2023-06-24T12:18:05;26.20;89.70
25046;DHT22;13044;49.304;12.840;2023-06-24T12:20:33;26.20;88.80
25046;DHT22;13044;49.304;12.840;2023-06-24T12:23:04;26.20;87.80
25046;DHT22;13044;49.304;12.840;2023-06-24T12:25:32;26.30;86.10
25046;DHT22;13044;49.304;12.840;2023-06-24T12:27:59;26.30;85.50
25046;DHT22;13044;49.304;12.840;2023-06-24T12:30:27;26.20;84.90
25046;DHT22;13044;49.304;12.840;2023-06-24T12:32:54;26.20;86.50
25046;DHT22;13044;49.304;12.840;2023-06-24T12:35:22;26.20;87.40
25046;DHT22;13044;49.304;12.840;2023-06-24T12:37:52;26.20;88.80
25046;DHT22;13044;49.304;12.840;2023-06-24T12:40:19;26.30;86.10
25046;DHT22;13044;49.304;12.840;2023-06-24T12:42:46;26.20;84.50
25046;DHT22;13044;49.304;12.840;2023-06-24T12:45:13;26.10;86.30
25046;DHT22;13044;49.304;12.840;2023-06-24T12:47:40;26.10;87.60
25046;DHT22;13044;49.304;12.840;2023-06-24T12:50:08;26.20;87.50
25046;DHT22;13044;49.304;12.840;2023-06-24T12:52:36;26.20;85.50
25046;DHT22;13044;49.304;12.840;2023-06-24T12:55:05;26.20;85.80
25046;DHT22;13044;49.304;12.840;2023-06-24T12:57:34;26.20;84.90
25046;DHT22;13044;49.304;12.840;2023-06-24T13:00:04;26.20;84.40
25046;DHT22;13044;49.304;12.840;2023-06-24T13:02:33;26.20;84.30
25046;DHT22;13044;49.304;12.840;2023-06-24T13:05:00;26.20;83.90
25046;DHT22;13044;49.304;12.840;2023-06-24T13:07:27;26.20;82.70
25046;DHT22;13044;49.304;12.840;2023-06-24T13:09:54;26.30;83.20
25046;DHT22;13044;49.304;12.840;2023-06-24T13:12:21;26.40;82.30
25046;DHT22;13044;49.304;12.840;2023-06-24T13:14:48;26.50;80.80
25046;DHT22;13044;49.304;12.840;2023-06-24T13:17:15;26.50;82.80
25046;DHT22;13044;49.304;12.840;2023-06-24T13:19:42;26.60;80.40
25046;DHT22;13044;49.304;12.840;2023-06-24T13:22:09;26.70;80.30
25046;DHT22;13044;49.304;12.840;2023-06-24T13:24:36;26.70;79.60
25046;DHT22;13044;49.304;12.840;2023-06-24T13:27:03;26.90;79.60
25046;DHT22;13044;49.304;12.840;2023-06-24T13:29:30;26.90;77.60
25046;DHT22;13044;49.304;12.840;2023-06-24T13:31:58;26.90;77.60
25046;DHT22;13044;49.304;12.840;2023-06-24T13:34:25;26.90;78.00
25046;DHT22;13044;49.304;12.840;2023-06-24T13:36:52;26.80;77.90
25046;DHT22;13044;49.304;12.840;2023-06-24T13:39:19;26.90;78.30
25046;DHT22;13044;49.304;12.840;2023-06-24T13:41:49;27.00;80.10
25046;DHT22;13044;49.304;12.840;2023-06-24T13:44:16;27.10;76.90
25046;DHT22;13044;49.304;12.840;2023-06-24T13:46:43;27.10;77.20
25046;DHT22;13044;49.304;12.840;2023-06-24T13:49:10;27.20;76.90
25046;DHT22;13044;49.304;12.840;2023-06-24T13:51:38;27.20;75.50
25046;DHT22;13044;49.304;12.840;2023-06-24T13:54:05;27.30;74.80
25046;DHT22;13044;49.304;12.840;2023-06-24T13:56:32;27.30;75.40
25046;DHT22;13044;49.304;12.840;2023-06-24T13:58:59;27.30;74.60
25046;DHT22;13044;49.304;12.840;2023-06-24T14:01:26;27.40;75.70
25046;DHT22;13044;49.304;12.840;2023-06-24T14:03:58;27.50;75.70
25046;DHT22;13044;49.304;12.840;2023-06-24T14:06:25;27.50;74.30
25046;DHT22;13044;49.304;12.840;2023-06-24T14:08:52;27.60;74.40
25046;DHT22;13044;49.304;12.840;2023-06-24T14:11:19;27.80;74.40
25046;DHT22;13044;49.304;12.840;2023-06-24T14:13:46;27.80;72.70
25046;DHT22;13044;49.304;12.840;2023-06-24T14:16:13;27.80;73.60
25046;DHT22;13044;49.304;12.840;2023-06-24T14:18:40;27.80;71.90
25046;DHT22;13044;49.304;12.840;2023-06-24T14:21:08;27.90;69.50
25046;DHT22;13044;49.304;12.840;2023-06-24T14:23:35;27.80;71.30
25046;DHT22;13044;49.304;12.840;2023-06-24T14:26:03;27.90;71.40
25046;DHT22;13044;49.304;12.840;2023-06-24T14:28:30;27.90;72.50
25046;DHT22;13044;49.304;12.840;2023-06-24T14:30:57;27.90;64.30
25046;DHT22;13044;49.304;12.840;2023-06-24T14:33:24;27.80;68.10
25046;DHT22;13044;49.304;12.840;2023-06-24T14:35:51;27.90;70.60
25046;DHT22;13044;49.304;12.840;2023-06-24T14:38:19;27.90;69.20
25046;DHT22;13044;49.304;12.840;2023-06-24T14:40:45;27.90;69.50
25046;DHT22;13044;49.304;12.840;2023-06-24T14:43:13;27.90;66.70
25046;DHT22;13044;49.304;12.840;2023-06-24T14:45:40;28.00;68.00
25046;DHT22;13044;49.304;12.840;2023-06-24T14:48:07;28.00;67.70
25046;DHT22;13044;49.304;12.840;2023-06-24T14:50:33;28.00;66.70
25046;DHT22;13044;49.304;12.840;2023-06-24T14:53:02;28.00;66.60
25046;DHT22;13044;49.304;12.840;2023-06-24T14:55:29;27.90;66.40
25046;DHT22;13044;49.304;12.840;2023-06-24T14:57:56;28.00;66.00
25046;DHT22;13044;49.304;12.840;2023-06-24T15:00:23;28.00;66.90
25046;DHT22;13044;49.304;12.840;2023-06-24T15:02:50;28.00;66.60
25046;DHT22;13044;49.304;12.840;2023-06-24T15:05:17;28.00;66.90
25046;DHT22;13044;49.304;12.840;2023-06-24T15:07:44;28.00;64.70
25046;DHT22;13044;49.304;12.840;2023-06-24T15:10:11;27.90;65.00
25046;DHT22;13044;49.304;12.840;2023-06-24T15:12:38;27.90;65.30
25046;DHT22;13044;49.304;12.840;2023-06-24T15:15:06;27.90;62.80
25046;DHT22;13044;49.304;12.840;2023-06-24T15:17:33;27.80;63.40
25046;DHT22;13044;49.304;12.840;2023-06-24T15:20:02;27.80;63.50
25046;DHT22;13044;49.304;12.840;2023-06-24T15:22:29;27.80;64.20
25046;DHT22;13044;49.304;12.840;2023-06-24T15:24:56;27.80;63.10
25046;DHT22;13044;49.304;12.840;2023-06-24T15:27:23;27.80;61.50
25046;DHT22;13044;49.304;12.840;2023-06-24T15:29:50;27.70;62.30
25046;DHT22;13044;49.304;12.840;2023-06-24T15:32:17;27.70;61.10
25046;DHT22;13044;49.304;12.840;2023-06-24T15:34:44;27.60;60.90
25046;DHT22;13044;49.304;12.840;2023-06-24T15:37:11;27.60;59.90
25046;DHT22;13044;49.304;12.840;2023-06-24T15:39:41;27.50;61.30
25046;DHT22;13044;49.304;12.840;2023-06-24T15:42:08;27.40;61.00
25046;DHT22;13044;49.304;12.840;2023-06-24T15:44:35;27.40;59.20
25046;DHT22;13044;49.304;12.840;2023-06-24T15:47:02;27.30;59.30
25046;DHT22;13044;49.304;12.840;2023-06-24T15:49:30;27.30;59.50
25046;DHT22;13044;49.304;12.840;2023-06-24T15:51:57;27.20;58.50